Terminal Aerodrome Forecast
Issued by NWS

Home | Current Version | Previous Version | Text Only | Print | Product List | Glossary On
Versions: 1 2 3 4 5 6 7 8 9 10 11 12 13 14
957
FTUS43 KAPX 260102 AAA
TAFAPN
TAF AMD
KAPN 260102Z 2601/2624 12008KT 6SM BR BKN003
      TEMPO 2601/2604 P6SM NSW SCT003
     FM261100 14007KT 6SM BR BKN003
     FM261800 14012G21KT P6SM SCT008 BKN040
     FM262200 14011G20KT P6SM BKN050=

USA.gov is the U.S. government's official web portal to all federal, state and local government web resources and services.